Santa Ana, CA

4:00 PM PST on January 29, 2015 (GMT -0800)
APRSWXNET Santa Ana CA US | Change Station
CLOSE
Current Station
Personal Weather Station
Location: Santa Ana, CA
Elevation: 130 ft
Nearby Weather Stations

Elev 130 ft 33.77 °N, 117.88 °W | Updated 37 minutes ago

Overcast
Overcast
72 °F
Feels Like 77 °F
N
0
Wind Variable Wind from SW
Gusts 0.0 mph

Today
High -- | Low -- °F
--% Chance of Precip.
Yesterday
High -- | Low -- °F
Precip. -- in
6:50 AM 5:19 PM
Waxing Gibbous, 78% visible
Pressure 29.98 in
Visibility 10.0 miles
Clouds Few 8000 ft
Mostly Cloudy 13000 ft
Mostly Cloudy 25000 ft
Heat Index 77 °F
Dew Point 46 °F
Humidity 40%
Rainfall -999.00 in
Snow Depth Not available.
UV 1 out of 12
Pollen 8.00 out of 12
Air Quality Not available.
Flu Activity Not available.
METAR KSNA 292353Z 20004KT 10SM FEW080 BKN130 BKN250 21/09 A2999 RMK AO2 SLP152 T02110094 10244 20206 55004

More Conditions Fewer Conditions

Pressure 29.98 in
Visibility 10.0 miles
Clouds Few 8000 ft
Mostly Cloudy 13000 ft
Mostly Cloudy 25000 ft
Heat Index 77 °F
Dew Point 46 °F
Humidity 40%
Rainfall -999.00 in
Snow Depth Not available.
UV 1 out of 12
Pollen 8.00 out of 12
Air Quality Not available.
Flu Activity Not available.
METAR KSNA 292353Z 20004KT 10SM FEW080 BKN130 BKN250 21/09 A2999 RMK AO2 SLP152 T02110094 10244 20206 55004

More Conditions Fewer Conditions

10-Day Weather Forecast

Almanac

Astronomy

Jan. 29, 2015 Rise Set
Actual Time
Civil Twilight
Nautical Twilight
Astronomical Twilight
Moon
Length of Visible Light
Length of Day
Tomorrow will be .
, % of the Moon is Illuminated

Today's Extremes

State Highs State Lows

Community

WunderPhotos

Upload Photos

1,791,645 photos uploaded!

WunderBlogs® & News

Nearby

Air Quality

  Air Quality AQ Index Pollutant
Not available.

Snow Depth

Station Depth Elevation

Earthquake Activity

City Distance Mag. Time & Date
Minimum magnitude displayed is 2.5.

Coastal Water Temperatures

Place Temperature

Nearby Weather Stations